Time;durP1;ratioP1;P1;durP2;ratioP2;P2;SDS_P1;SDS_P2;PMS_P1;PMS_P2;Temp;Humidity;BMP_temperature;BMP_pressure;BME280_temperature;BME280_humidity;BME280_pressure;Samples;Min_cycle;Max_cycle;Signal;HPM_P1;HPM_P2
2023/05/08 00:00:21;;;;;;;;;;;;;;;20.23;58.39;100917.44;4951224;28;7014;-75
2023/05/08 00:02:47;;;;;;;;;;;;;;;20.20;58.59;100919.09;4976896;28;7118;-75
2023/05/08 00:05:13;;;;;;;;;;;;;;;20.17;58.10;100916.44;4970986;28;7259;-75
2023/05/08 00:07:39;;;;;;;;;;;;;;;20.14;58.09;100917.28;4963584;28;6780;-75
2023/05/08 00:10:07;;;;;;;;;;;;;;;20.11;58.21;100919.81;4985247;28;6973;-75
2023/05/08 00:12:33;;;;;;;;;;;;;;;20.08;58.35;100915.41;4979205;28;8534;-75
2023/05/08 00:14:59;;;;;;;;;;;;;;;20.07;58.54;100915.41;4964780;28;6938;-75
2023/05/08 00:17:25;;;;;;;;;;;;;;;20.05;58.30;100919.72;4965250;28;7089;-75
2023/05/08 00:19:51;;;;;;;;;;;;;;;20.03;58.98;100922.28;4947121;28;7019;-75
2023/05/08 00:22:18;;;;;;;;;;;;;;;20.00;58.52;100921.34;4972036;28;7036;-75
2023/05/08 00:24:44;;;;;;;;;;;;;;;19.96;58.45;100917.81;4967602;28;7130;-75
2023/05/08 00:27:10;;;;;;;;;;;;;;;19.92;58.73;100919.44;4969714;28;7220;-75
2023/05/08 00:29:36;;;;;;;;;;;;;;;19.88;59.18;100916.75;4966851;28;6915;-76
2023/05/08 00:32:01;;;;;;;;;;;;;;;19.84;58.53;100918.44;4973354;28;6788;-75
2023/05/08 00:34:27;;;;;;;;;;;;;;;19.79;59.00;100915.75;4965381;28;7081;-75
2023/05/08 00:36:55;;;;;;;;;;;;;;;19.75;59.27;100919.16;4983873;28;6840;-75
2023/05/08 00:39:20;;;;;;;;;;;;;;;19.72;59.01;100911.31;4964280;28;6844;-75
2023/05/08 00:41:46;;;;;;;;;;;;;;;19.69;59.27;100916.44;4951424;28;6951;-75
2023/05/08 00:44:12;;;;;;;;;;;;;;;19.65;58.91;100917.22;4967597;28;6960;-75
2023/05/08 00:46:40;;;;;;;;;;;;;;;19.60;59.25;100918.84;4953821;28;6917;-75
2023/05/08 00:49:10;;;;;;;;;;;;;;;19.55;59.30;100919.66;4949943;28;6872;-75
2023/05/08 00:51:36;;;;;;;;;;;;;;;19.52;59.23;100922.22;4968112;28;6804;-75
2023/05/08 00:54:02;;;;;;;;;;;;;;;19.48;59.54;100927.31;4971107;28;7255;-75
2023/05/08 00:56:29;;;;;;;;;;;;;;;19.43;59.75;100915.09;4967571;28;8000;-75
2023/05/08 00:58:55;;;;;;;;;;;;;;;19.39;59.37;100925.38;4969464;28;7353;-75
2023/05/08 01:01:22;;;;;;;;;;;;;;;19.36;59.62;100928.81;4964501;28;7443;-75
2023/05/08 01:03:48;;;;;;;;;;;;;;;19.32;59.59;100926.13;4962333;28;6920;-75
2023/05/08 01:06:14;;;;;;;;;;;;;;;19.27;59.91;100924.31;4966244;28;7071;-75
2023/05/08 01:08:44;;;;;;;;;;;;;;;19.25;59.98;100926.00;4952670;28;6776;-75
2023/05/08 01:11:36;;;;;;;;;;;;;;;19.21;59.99;100926.75;4966346;28;6986;-75
2023/05/08 01:14:27;;;;;;;;;;;;;;;19.13;59.96;100923.16;4963538;28;6808;-75
2023/05/08 01:17:15;;;;;;;;;;;;;;;19.07;60.24;100936.00;4961931;28;8120;-75
2023/05/08 01:20:21;;;;;;;;;;;;;;;18.98;59.57;100937.53;4963784;28;7917;-76
2023/05/08 01:23:05;;;;;;;;;;;;;;;18.91;60.21;100938.22;4962568;28;6824;-75
2023/05/08 01:25:52;;;;;;;;;;;;;;;18.84;60.27;100936.34;4955108;28;6824;-75
2023/05/08 01:28:53;;;;;;;;;;;;;;;18.77;59.76;100942.25;4986076;28;6995;-75
2023/05/08 01:31:41;;;;;;;;;;;;;;;18.70;60.36;100947.28;4981837;28;7347;-75
2023/05/08 01:34:25;;;;;;;;;;;;;;;18.65;60.28;100943.72;4970208;28;7253;-75
2023/05/08 01:37:10;;;;;;;;;;;;;;;18.63;60.01;100950.56;4962109;28;6804;-75
2023/05/08 01:40:03;;;;;;;;;;;;;;;18.60;60.65;100954.00;4967993;28;6816;-76
2023/05/08 01:42:52;;;;;;;;;;;;;;;18.60;60.33;100950.50;4957959;28;8311;-75
2023/05/08 01:45:47;;;;;;;;;;;;;;;18.59;60.56;100952.25;4965729;28;6877;-75
2023/05/08 01:48:23;;;;;;;;;;;;;;;18.59;60.26;100951.34;4965177;28;6796;-75
2023/05/08 01:51:05;;;;;;;;;;;;;;;18.56;60.68;100946.09;4958465;28;8328;-75
2023/05/08 01:53:43;;;;;;;;;;;;;;;18.54;60.56;100956.44;4953138;28;6985;-75
2023/05/08 01:56:16;;;;;;;;;;;;;;;18.53;60.55;100953.78;4959027;28;6808;-75
2023/05/08 01:58:44;;;;;;;;;;;;;;;18.52;61.00;100957.22;4962840;28;6816;-75
2023/05/08 02:01:12;;;;;;;;;;;;;;;18.53;60.71;100961.56;4967445;28;7006;-75
2023/05/08 02:03:41;;;;;;;;;;;;;;;18.54;60.88;100958.13;4955586;28;8168;-75
2023/05/08 02:06:11;;;;;;;;;;;;;;;18.56;60.61;100959.06;4954390;28;7141;-75
2023/05/08 02:08:37;;;;;;;;;;;;;;;18.56;61.15;100959.06;4968379;28;6789;-75
2023/05/08 02:11:05;;;;;;;;;;;;;;;18.57;60.99;100960.81;4945455;28;9251;-75
2023/05/08 02:13:35;;;;;;;;;;;;;;;18.56;60.68;100965.13;4955833;28;8208;-75
2023/05/08 02:16:02;;;;;;;;;;;;;;;18.56;60.70;100969.47;4971054;28;7404;-75
2023/05/08 02:18:30;;;;;;;;;;;;;;;18.53;61.00;100970.25;4970128;28;6863;-75
2023/05/08 02:21:01;;;;;;;;;;;;;;;18.51;60.47;100960.66;4958726;28;6880;-75
2023/05/08 02:23:29;;;;;;;;;;;;;;;18.51;61.14;100968.47;4967985;28;7479;-76
2023/05/08 02:25:56;;;;;;;;;;;;;;;18.51;60.58;100968.47;4963756;28;7193;-76
2023/05/08 02:28:23;;;;;;;;;;;;;;;18.50;60.92;100969.28;4967786;28;6980;-76
2023/05/08 02:30:51;;;;;;;;;;;;;;;18.49;60.94;100964.94;4956427;28;6839;-76
2023/05/08 02:33:18;;;;;;;;;;;;;;;18.46;60.85;100958.84;4945757;28;8402;-76
2023/05/08 02:35:47;;;;;;;;;;;;;;;18.45;61.02;100957.09;4966776;28;6792;-76
2023/05/08 02:38:16;;;;;;;;;;;;;;;18.41;61.12;100957.84;4966061;28;8662;-76
2023/05/08 02:40:50;;;;;;;;;;;;;;;18.36;60.81;100959.47;4956911;28;7008;-76
2023/05/08 02:43:16;;;;;;;;;;;;;;;18.31;61.25;100964.53;4966001;28;6980;-76
2023/05/08 02:46:09;;;;;;;;;;;;;;;18.26;61.15;100970.47;4968566;28;7007;-76
2023/05/08 02:48:38;;;;;;;;;;;;;;;18.18;60.87;100971.13;4968890;28;7007;-76
2023/05/08 02:51:54;;;;;;;;;;;;;;;18.13;60.85;100970.13;4966945;28;7028;-76
2023/05/08 02:55:02;;;;;;;;;;;;;;;18.06;61.13;100970.81;4962227;28;7699;-73
2023/05/08 02:58:09;;;;;;;;;;;;;;;18.06;61.37;100968.22;4955529;28;6868;-74
2023/05/08 03:00:46;;;;;;;;;;;;;;;18.06;61.29;100968.22;4985987;28;7065;-77
2023/05/08 03:04:00;;;;;;;;;;;;;;;18.09;61.61;100973.50;4966484;28;7225;-76
2023/05/08 03:06:28;;;;;;;;;;;;;;;18.13;61.55;100967.53;4942745;28;7282;-75
2023/05/08 03:09:01;;;;;;;;;;;;;;;18.18;61.89;100963.34;4995126;28;6962;-77
2023/05/08 03:11:39;;;;;;;;;;;;;;;18.26;62.32;100967.88;4990307;28;6944;-77
2023/05/08 03:14:11;;;;;;;;;;;;;;;18.32;61.70;100971.47;4968899;28;7225;-76
2023/05/08 03:16:42;;;;;;;;;;;;;;;18.40;62.02;100968.22;4964214;28;6881;-77
2023/05/08 03:19:23;;;;;;;;;;;;;;;18.46;61.68;100960.56;4954515;28;6816;-77
2023/05/08 03:21:52;;;;;;;;;;;;;;;18.54;61.87;100958.13;4970019;28;6788;-77
2023/05/08 03:24:22;;;;;;;;;;;;;;;18.57;61.86;100959.09;4966696;28;7078;-77
2023/05/08 03:26:48;;;;;;;;;;;;;;;18.62;62.03;100956.59;4965987;28;6792;-77
2023/05/08 03:29:17;;;;;;;;;;;;;;;18.66;61.94;100958.44;4951820;28;7162;-76
2023/05/08 03:31:43;;;;;;;;;;;;;;;18.70;61.86;100962.84;4958920;28;7298;-77
2023/05/08 03:34:14;;;;;;;;;;;;;;;18.73;61.70;100962.97;4971011;28;6816;-75
2023/05/08 03:36:40;;;;;;;;;;;;;;;18.76;61.70;100956.06;4960333;28;6991;-77
2023/05/08 03:39:06;;;;;;;;;;;;;;;18.79;61.39;100958.72;4979279;28;8773;-76
2023/05/08 03:41:32;;;;;;;;;;;;;;;18.79;61.74;100951.81;4982079;28;10013;-75
2023/05/08 03:44:02;;;;;;;;;;;;;;;18.79;61.57;100953.53;4964092;28;6792;-75
2023/05/08 03:46:31;;;;;;;;;;;;;;;18.76;61.76;100953.47;4951952;28;7252;-75
2023/05/08 03:48:59;;;;;;;;;;;;;;;18.73;61.38;100943.88;4963337;28;7068;-75
2023/05/08 03:51:27;;;;;;;;;;;;;;;18.71;61.65;100959.41;4971091;28;7469;-75
2023/05/08 03:53:52;;;;;;;;;;;;;;;18.71;61.55;100958.56;4963265;28;7227;-75
2023/05/08 03:56:18;;;;;;;;;;;;;;;18.70;61.62;100962.00;4948421;28;6973;-75
2023/05/08 03:59:04;;;;;;;;;;;;;;;18.71;61.72;100955.97;4977288;28;7221;-75
2023/05/08 04:01:53;;;;;;;;;;;;;;;18.70;61.30;100957.66;4944992;28;6886;-75
2023/05/08 04:04:36;;;;;;;;;;;;;;;18.68;61.60;100956.75;4962728;28;6941;-75
2023/05/08 04:07:36;;;;;;;;;;;;;;;18.68;61.95;100964.56;4979036;28;6863;-74
2023/05/08 04:10:23;;;;;;;;;;;;;;;18.67;62.32;100956.72;4957727;28;7015;-74
2023/05/08 04:13:18;;;;;;;;;;;;;;;18.65;61.92;100959.28;4952260;28;6884;-74
2023/05/08 04:15:51;;;;;;;;;;;;;;;18.63;61.96;100957.50;4963173;28;7287;-75
2023/05/08 04:18:27;;;;;;;;;;;;;;;18.60;61.73;100956.59;4965684;28;7967;-74
2023/05/08 04:20:56;;;;;;;;;;;;;;;18.57;62.10;100947.84;4968931;28;7428;-74
2023/05/08 04:23:24;;;;;;;;;;;;;;;18.54;61.97;100953.84;4966418;28;6824;-74
2023/05/08 04:25:52;;;;;;;;;;;;;;;18.52;61.87;100941.66;4963447;28;7123;-74
2023/05/08 04:28:19;;;;;;;;;;;;;;;18.51;62.06;100952.88;4953803;28;6792;-74
2023/05/08 04:30:46;;;;;;;;;;;;;;;18.51;62.15;100948.59;4945539;28;7192;-74
2023/05/08 04:33:13;;;;;;;;;;;;;;;18.51;61.63;100952.88;4949997;28;6990;-74
2023/05/08 04:35:39;;;;;;;;;;;;;;;18.52;61.91;100957.22;4956942;28;7214;-74
2023/05/08 04:38:04;;;;;;;;;;;;;;;18.53;61.75;100958.97;4952704;28;6964;-74
2023/05/08 04:40:30;;;;;;;;;;;;;;;18.51;61.90;100958.06;4980295;28;6831;-74
2023/05/08 04:42:56;;;;;;;;;;;;;;;18.50;62.08;100964.09;4964562;28;6872;-74
2023/05/08 04:45:22;;;;;;;;;;;;;;;18.47;62.19;100959.72;4950575;28;6776;-74
2023/05/08 04:47:48;;;;;;;;;;;;;;;18.44;62.22;100962.25;4950889;28;6795;-74
2023/05/08 04:50:13;;;;;;;;;;;;;;;18.42;62.28;100967.38;4967624;28;6832;-74
2023/05/08 04:52:39;;;;;;;;;;;;;;;18.42;62.29;100971.72;4966011;28;6838;-74
2023/05/08 04:55:05;;;;;;;;;;;;;;;18.41;62.17;100968.22;4963001;28;6796;-74
2023/05/08 04:57:32;;;;;;;;;;;;;;;18.41;62.53;100972.56;4954507;28;7210;-74
2023/05/08 04:59:58;;;;;;;;;;;;;;;18.42;62.14;100972.56;4965554;28;6855;-74
2023/05/08 05:02:25;;;;;;;;;;;;;;;18.44;62.58;100968.28;4941830;28;7058;-74
2023/05/08 05:04:51;;;;;;;;;;;;;;;18.46;62.60;100965.75;4960948;28;6988;-74
2023/05/08 05:07:16;;;;;;;;;;;;;;;18.49;63.21;100977.94;4957030;28;7810;-73
2023/05/08 05:09:42;;;;;;;;;;;;;;;18.53;62.44;100977.16;4976930;28;6776;-74
2023/05/08 05:12:08;;;;;;;;;;;;;;;18.60;62.75;100979.06;4970294;28;6791;-74
2023/05/08 05:14:33;;;;;;;;;;;;;;;18.69;63.33;100978.44;4968054;28;6784;-74
2023/05/08 05:16:59;;;;;;;;;;;;;;;18.79;63.27;100987.28;4971780;28;8096;-73
2023/05/08 05:19:26;;;;;;;;;;;;;;;18.87;63.19;100988.34;4956776;28;6956;-73
2023/05/08 05:21:51;;;;;;;;;;;;;;;18.93;62.91;100985.91;4972247;28;6799;-73
2023/05/08 05:24:17;;;;;;;;;;;;;;;19.01;62.79;100989.56;4972753;28;7126;-73
2023/05/08 05:26:43;;;;;;;;;;;;;;;19.13;62.95;100993.31;4969089;28;6844;-74
2023/05/08 05:29:08;;;;;;;;;;;;;;;19.30;63.21;100998.84;4971700;28;7229;-73
2023/05/08 05:31:34;;;;;;;;;;;;;;;19.47;63.35;100994.00;4958577;28;6792;-74
2023/05/08 05:33:59;;;;;;;;;;;;;;;19.63;63.16;100995.19;4968707;28;6859;-74
2023/05/08 05:36:25;;;;;;;;;;;;;;;19.75;62.30;100999.78;4956490;28;6776;-74
2023/05/08 05:38:51;;;;;;;;;;;;;;;19.84;62.37;100997.34;4955592;28;6987;-73
2023/05/08 05:41:16;;;;;;;;;;;;;;;19.91;62.21;101005.28;4970066;28;6797;-73
2023/05/08 05:43:42;;;;;;;;;;;;;;;19.97;62.06;101005.41;4967963;28;6831;-74
2023/05/08 05:46:09;;;;;;;;;;;;;;;20.03;61.80;101007.25;4987925;28;6846;-73
2023/05/08 05:48:35;;;;;;;;;;;;;;;20.10;61.88;101012.63;4972086;28;6792;-73
2023/05/08 05:51:01;;;;;;;;;;;;;;;20.20;61.63;101002.38;4969773;28;7219;-74
2023/05/08 05:53:27;;;;;;;;;;;;;;;20.32;61.96;101007.78;4971502;28;7026;-74
2023/05/08 05:55:53;;;;;;;;;;;;;;;20.48;62.32;101014.13;4969628;28;6850;-73
2023/05/08 05:58:19;;;;;;;;;;;;;;;20.65;61.63;101010.94;4973139;28;7013;-74
2023/05/08 06:00:46;;;;;;;;;;;;;;;20.84;61.73;101022.53;4969613;28;6810;-73
2023/05/08 06:03:12;;;;;;;;;;;;;;;21.03;61.85;101015.88;4971173;28;7054;-74
2023/05/08 06:05:39;;;;;;;;;;;;;;;21.24;61.90;101022.25;4969129;28;6784;-74
2023/05/08 06:08:06;;;;;;;;;;;;;;;21.49;61.43;101019.97;4973333;28;6855;-74
2023/05/08 06:10:31;;;;;;;;;;;;;;;21.75;61.17;101015.09;4967238;28;6824;-74
2023/05/08 06:12:57;;;;;;;;;;;;;;;22.02;61.11;101018.88;4966015;28;7059;-74
2023/05/08 06:15:23;;;;;;;;;;;;;;;22.28;60.88;101023.47;4964473;28;7404;-75
2023/05/08 06:17:49;;;;;;;;;;;;;;;22.47;60.13;101018.41;4956659;28;6804;-75
2023/05/08 06:20:15;;;;;;;;;;;;;;;22.65;59.35;101024.69;4970522;28;6969;-75
2023/05/08 06:22:41;;;;;;;;;;;;;;;22.78;59.05;101026.50;4970000;28;6855;-75
2023/05/08 06:25:08;;;;;;;;;;;;;;;22.88;58.47;101033.53;4973349;28;6788;-74
2023/05/08 06:27:34;;;;;;;;;;;;;;;22.94;58.60;101026.63;4972085;28;7240;-76
2023/05/08 06:30:00;;;;;;;;;;;;;;;23.00;58.27;101029.28;4973742;28;7530;-74
2023/05/08 06:32:26;;;;;;;;;;;;;;;23.04;58.18;101036.28;4962543;28;7215;-75
2023/05/08 06:34:51;;;;;;;;;;;;;;;23.07;57.61;101033.66;4969416;28;6776;-75
2023/05/08 06:37:18;;;;;;;;;;;;;;;23.11;57.09;101030.22;4958462;28;6768;-75
2023/05/08 06:39:44;;;;;;;;;;;;;;;23.13;57.36;101025.00;4983251;28;7066;-75
2023/05/08 06:42:09;;;;;;;;;;;;;;;23.19;57.12;101034.63;4983734;28;7278;-74
2023/05/08 06:44:35;;;;;;;;;;;;;;;23.15;56.32;101028.50;4975540;28;7139;-76
2023/05/08 06:47:01;;;;;;;;;;;;;;;23.15;56.38;101026.75;4959293;28;6988;-75
2023/05/08 06:49:27;;;;;;;;;;;;;;;23.15;56.87;101029.38;4954581;28;7000;-74
2023/05/08 06:51:53;;;;;;;;;;;;;;;23.20;56.58;101034.63;4986372;28;6792;-76
2023/05/08 06:54:18;;;;;;;;;;;;;;;23.24;56.43;101032.91;4971937;28;6968;-74
2023/05/08 06:56:45;;;;;;;;;;;;;;;23.26;56.66;101033.78;4966065;28;6831;-75
2023/05/08 06:59:10;;;;;;;;;;;;;;;23.33;56.63;101035.59;4973859;28;7174;-74
2023/05/08 07:01:36;;;;;;;;;;;;;;;23.40;56.78;101042.63;4984816;28;7299;-75
2023/05/08 07:04:02;;;;;;;;;;;;;;;23.49;56.20;101046.16;4969587;28;7034;-75
2023/05/08 07:06:30;;;;;;;;;;;;;;;23.57;56.44;101041.84;4968264;28;7194;-75
2023/05/08 07:08:56;;;;;;;;;;;;;;;23.62;56.10;101040.09;4957729;28;7075;-75
2023/05/08 07:11:22;;;;;;;;;;;;;;;23.65;55.96;101036.63;4969730;28;7329;-76
2023/05/08 07:13:47;;;;;;;;;;;;;;;23.65;55.73;101037.47;4970267;28;6856;-74
2023/05/08 07:16:16;;;;;;;;;;;;;;;23.65;55.41;101042.72;4956332;28;6981;-74
2023/05/08 07:18:42;;;;;;;;;;;;;;;23.64;55.15;101035.72;4987497;28;7011;-75
2023/05/08 07:21:08;;;;;;;;;;;;;;;23.64;55.12;101034.88;4988096;28;7133;-75
2023/05/08 07:23:34;;;;;;;;;;;;;;;23.68;55.29;101023.53;4954003;28;7910;-74
2023/05/08 07:26:00;;;;;;;;;;;;;;;23.72;55.27;101034.03;4973711;28;6951;-75
2023/05/08 07:28:25;;;;;;;;;;;;;;;23.76;55.58;101031.41;4971797;28;6775;-75
2023/05/08 07:30:51;;;;;;;;;;;;;;;23.84;55.07;101035.81;4987000;28;7017;-75
2023/05/08 07:33:18;;;;;;;;;;;;;;;23.94;55.36;101028.84;4956799;28;8781;-75
2023/05/08 07:35:44;;;;;;;;;;;;;;;24.04;54.67;101029.78;4968430;28;6997;-75
2023/05/08 07:38:10;;;;;;;;;;;;;;;24.10;54.05;101028.94;4969840;28;7183;-75
2023/05/08 07:40:35;;;;;;;;;;;;;;;24.19;54.58;101033.28;4971041;28;7245;-75
2023/05/08 07:43:01;;;;;;;;;;;;;;;24.30;54.02;101036.81;4952923;28;8431;-75
2023/05/08 07:45:27;;;;;;;;;;;;;;;24.43;53.74;101035.06;4951433;28;7342;-76
2023/05/08 07:47:56;;;;;;;;;;;;;;;24.59;54.02;101042.94;4965732;28;7150;-74
2023/05/08 07:50:24;;;;;;;;;;;;;;;24.78;53.55;101043.84;4953283;28;8435;-74
2023/05/08 07:52:51;;;;;;;;;;;;;;;25.02;53.78;101040.31;4957340;28;8635;-75
2023/05/08 07:55:18;;;;;;;;;;;;;;;25.34;53.35;101044.59;4956740;28;6987;-74
2023/05/08 07:57:44;;;;;;;;;;;;;;;25.63;52.87;101034.88;4968058;28;6808;-74
2023/05/08 08:00:13;;;;;;;;;;;;;;;25.87;51.48;101039.13;4970251;28;6800;-75
2023/05/08 08:02:40;;;;;;;;;;;;;;;25.97;50.70;101034.72;4969012;28;7962;-75
2023/05/08 08:05:07;;;;;;;;;;;;;;;26.06;49.97;101044.28;4978951;28;7301;-75
2023/05/08 08:07:34;;;;;;;;;;;;;;;26.21;50.31;101032.81;4984452;28;6808;-75
2023/05/08 08:10:01;;;;;;;;;;;;;;;26.38;49.77;101032.72;4966814;28;7275;-75
2023/05/08 08:12:27;;;;;;;;;;;;;;;26.58;49.61;101031.69;4955556;28;6784;-75
2023/05/08 08:14:54;;;;;;;;;;;;;;;26.78;49.41;101031.47;4987921;28;7102;-75
2023/05/08 08:17:19;;;;;;;;;;;;;;;27.06;48.74;101030.38;4982473;28;7353;-75
2023/05/08 08:19:45;;;;;;;;;;;;;;;27.35;48.46;101034.44;4952984;28;6950;-75
2023/05/08 08:22:11;;;;;;;;;;;;;;;27.51;47.66;101030.69;4967708;28;6961;-75
2023/05/08 08:24:36;;;;;;;;;;;;;;;27.61;46.97;101026.22;4965980;28;7115;-74
2023/05/08 08:27:03;;;;;;;;;;;;;;;27.65;46.28;101025.28;4954375;28;6916;-75
2023/05/08 08:29:29;;;;;;;;;;;;;;;27.64;46.21;101028.81;4959047;28;7072;-75
2023/05/08 08:31:55;;;;;;;;;;;;;;;27.52;45.81;101029.81;4961905;28;7175;-75
2023/05/08 08:34:21;;;;;;;;;;;;;;;27.31;45.43;101029.19;4999794;28;6920;-74
2023/05/08 08:36:47;;;;;;;;;;;;;;;27.08;45.66;101032.09;4976028;28;6923;-75
2023/05/08 08:39:13;;;;;;;;;;;;;;;26.81;45.89;101038.47;4953854;28;6958;-75
2023/05/08 08:41:38;;;;;;;;;;;;;;;26.50;45.87;101039.59;4966948;28;6991;-75
2023/05/08 08:44:04;;;;;;;;;;;;;;;26.22;46.32;101041.59;4971964;28;7161;-74
2023/05/08 08:46:34;;;;;;;;;;;;;;;26.00;46.50;101044.34;4973247;28;7010;-76
2023/05/08 08:49:03;;;;;;;;;;;;;;;25.77;46.72;101037.44;4957137;28;8751;-75
2023/05/08 08:52:01;;;;;;;;;;;;;;;25.58;46.75;101040.16;4952949;28;7750;-75
2023/05/08 08:54:33;;;;;;;;;;;;;;;25.43;47.26;101041.06;4951598;28;6808;-75
2023/05/08 08:57:05;;;;;;;;;;;;;;;25.33;47.62;101039.34;4971400;28;7179;-75
2023/05/08 08:59:32;;;;;;;;;;;;;;;25.29;47.56;101041.09;4952672;28;7246;-75
2023/05/08 09:02:05;;;;;;;;;;;;;;;25.30;47.50;101032.38;4947162;28;7110;-75
2023/05/08 09:04:31;;;;;;;;;;;;;;;25.37;47.70;101031.47;4936348;28;7341;-76
2023/05/08 09:06:58;;;;;;;;;;;;;;;25.44;47.69;101032.28;4979512;28;7220;-75
2023/05/08 09:09:24;;;;;;;;;;;;;;;25.49;47.33;101030.53;4958271;28;7006;-75
2023/05/08 09:11:51;;;;;;;;;;;;;;;25.52;47.43;101032.31;4966725;28;6828;-75
2023/05/08 09:14:17;;;;;;;;;;;;;;;25.56;48.04;101026.16;4967231;28;7221;-75
2023/05/08 09:16:43;;;;;;;;;;;;;;;25.67;47.79;101025.25;4965486;28;6976;-75
2023/05/08 09:19:14;;;;;;;;;;;;;;;25.85;47.56;101022.53;4969921;28;7071;-75
2023/05/08 09:21:41;;;;;;;;;;;;;;;26.09;46.90;101019.75;4983028;28;6812;-75
2023/05/08 09:24:07;;;;;;;;;;;;;;;26.17;46.58;101021.47;4961044;28;6843;-75
2023/05/08 09:26:39;;;;;;;;;;;;;;;26.18;46.41;101027.56;4954142;28;7218;-75
2023/05/08 09:29:16;;;;;;;;;;;;;;;26.11;46.40;101024.13;4969559;28;7354;-75
2023/05/08 09:31:46;;;;;;;;;;;;;;;26.22;46.68;101028.47;4968755;28;6800;-75
2023/05/08 09:34:23;;;;;;;;;;;;;;;26.62;46.70;101022.88;4964727;28;6796;-75
2023/05/08 09:36:49;;;;;;;;;;;;;;;27.21;46.02;101017.03;4951152;28;7046;-75
2023/05/08 09:39:23;;;;;;;;;;;;;;;27.65;45.21;101016.53;4966457;28;6936;-75
2023/05/08 09:42:00;;;;;;;;;;;;;;;27.87;44.52;101014.47;4959974;28;7179;-75
2023/05/08 09:44:27;;;;;;;;;;;;;;;27.95;44.03;101017.00;4959974;28;6804;-74
2023/05/08 09:47:10;;;;;;;;;;;;;;;28.13;44.16;101018.47;4954097;28;7033;-75
2023/05/08 09:49:38;;;;;;;;;;;;;;;28.69;44.22;101013.19;4954315;28;6808;-75
2023/05/08 09:52:04;;;;;;;;;;;;;;;29.55;43.44;101018.59;4959206;28;8276;-75
2023/05/08 09:54:29;;;;;;;;;;;;;;;30.54;42.90;101013.66;4957165;28;6983;-75
2023/05/08 09:56:55;;;;;;;;;;;;;;;31.44;41.42;101007.72;4957683;28;7029;-75
2023/05/08 09:59:27;;;;;;;;;;;;;;;32.32;40.25;101004.06;4971654;28;6963;-75
2023/05/08 10:01:54;;;;;;;;;;;;;;;33.14;39.10;101007.47;4954192;28;6812;-75
2023/05/08 10:04:35;;;;;;;;;;;;;;;33.87;37.62;101002.88;4965262;28;6793;-75
2023/05/08 10:07:01;;;;;;;;;;;;;;;34.19;36.13;100998.06;4939370;28;7255;-75
2023/05/08 10:09:27;;;;;;;;;;;;;;;34.52;36.19;101001.13;4950217;28;7245;-75
2023/05/08 10:11:54;;;;;;;;;;;;;;;35.14;34.97;101001.06;4988750;28;6803;-75
2023/05/08 10:14:23;;;;;;;;;;;;;;;35.76;34.13;100995.53;4971088;28;6970;-75
2023/05/08 10:16:51;;;;;;;;;;;;;;;36.14;33.52;101000.78;4968845;28;6780;-75
2023/05/08 10:19:23;;;;;;;;;;;;;;;36.21;32.94;100998.66;4951006;28;6804;-75
2023/05/08 10:21:52;;;;;;;;;;;;;;;36.04;31.88;100994.16;4967650;28;6791;-75
2023/05/08 10:24:25;;;;;;;;;;;;;;;35.43;31.70;100999.72;4964852;28;6785;-75
2023/05/08 10:27:30;;;;;;;;;;;;;;;34.50;31.91;101006.50;4971745;28;6848;-75
2023/05/08 10:30:03;;;;;;;;;;;;;;;33.19;32.58;100994.88;4954190;28;7336;-75
2023/05/08 10:32:40;;;;;;;;;;;;;;;32.19;33.81;101003.63;4956801;28;6871;-75
2023/05/08 10:35:10;;;;;;;;;;;;;;;31.39;34.57;101005.22;4957751;28;7297;-75
2023/05/08 10:37:38;;;;;;;;;;;;;;;30.79;34.79;101005.09;4949105;28;7232;-75
2023/05/08 10:40:06;;;;;;;;;;;;;;;30.36;36.01;101001.75;4936751;28;7289;-75
2023/05/08 10:42:36;;;;;;;;;;;;;;;30.00;35.88;101007.88;4969532;28;6788;-75
2023/05/08 10:45:04;;;;;;;;;;;;;;;29.63;37.13;101003.44;4957023;28;6792;-75
2023/05/08 10:48:07;;;;;;;;;;;;;;;29.13;36.70;101001.81;4955741;28;6788;-75
2023/05/08 10:51:02;;;;;;;;;;;;;;;28.68;37.62;101003.53;4987113;28;6808;-75
2023/05/08 10:53:50;;;;;;;;;;;;;;;28.22;38.51;101002.53;4982278;28;7287;-75
2023/05/08 10:56:15;;;;;;;;;;;;;;;27.95;39.08;101006.47;4954885;28;6879;-74
2023/05/08 10:58:41;;;;;;;;;;;;;;;27.75;39.13;101004.97;4955801;28;6800;-75
2023/05/08 11:01:07;;;;;;;;;;;;;;;27.52;39.35;101014.00;4966418;28;6964;-74
2023/05/08 11:03:42;;;;;;;;;;;;;;;27.34;39.94;101009.00;4981099;28;7010;-74
2023/05/08 11:06:08;;;;;;;;;;;;;;;27.16;39.90;101008.34;4970963;28;7277;-73
2023/05/08 11:08:51;;;;;;;;;;;;;;;26.99;40.49;101001.50;4974925;28;6975;-73
2023/05/08 11:11:32;;;;;;;;;;;;;;;26.78;40.77;101005.19;4968132;28;6800;-73
2023/05/08 11:14:07;;;;;;;;;;;;;;;26.60;41.05;101007.09;4966745;28;6839;-74
2023/05/08 11:16:55;;;;;;;;;;;;;;;26.41;41.49;100998.53;4947817;28;6780;-73
2023/05/08 11:19:23;;;;;;;;;;;;;;;26.24;41.94;101003.94;4948590;28;6792;-73
2023/05/08 11:22:22;;;;;;;;;;;;;;;26.09;42.34;101001.38;4953147;28;6904;-73
2023/05/08 11:24:57;;;;;;;;;;;;;;;25.95;42.37;101006.72;4976127;28;6808;-74
2023/05/08 11:27:48;;;;;;;;;;;;;;;25.79;43.22;100998.94;4952891;28;7281;-73
2023/05/08 11:30:34;;;;;;;;;;;;;;;25.67;43.03;101002.50;4952273;28;8300;-73
2023/05/08 11:33:03;;;;;;;;;;;;;;;25.56;43.37;100993.81;4956800;28;6796;-73
2023/05/08 11:35:58;;;;;;;;;;;;;;;25.48;43.89;100997.31;4956154;28;7167;-73
2023/05/08 11:38:31;;;;;;;;;;;;;;;25.37;44.17;100996.50;4951762;28;6868;-73
2023/05/08 11:40:57;;;;;;;;;;;;;;;25.27;44.96;100990.41;4957305;28;6888;-73
2023/05/08 11:43:33;;;;;;;;;;;;;;;25.15;45.22;100990.44;4955710;28;6772;-73
2023/05/08 11:46:03;;;;;;;;;;;;;;;25.03;45.10;100991.34;4953843;28;6945;-74
2023/05/08 11:48:33;;;;;;;;;;;;;;;24.96;45.52;100995.75;4981821;28;6984;-74
2023/05/08 11:51:00;;;;;;;;;;;;;;;24.89;45.96;101000.13;4959907;28;6830;-74
2023/05/08 11:53:26;;;;;;;;;;;;;;;24.81;45.83;100992.25;4953137;28;7261;-74
2023/05/08 11:55:52;;;;;;;;;;;;;;;24.73;46.24;100986.16;4972788;28;6887;-74
2023/05/08 11:58:18;;;;;;;;;;;;;;;24.67;46.92;100997.53;4968962;28;6810;-74
2023/05/08 12:00:46;;;;;;;;;;;;;;;24.64;46.89;100988.78;4967229;28;6865;-74
2023/05/08 12:03:19;;;;;;;;;;;;;;;24.61;46.94;100988.78;4939713;28;7295;-74
2023/05/08 12:05:46;;;;;;;;;;;;;;;24.64;47.10;100989.66;4952702;28;6820;-74
2023/05/08 12:08:14;;;;;;;;;;;;;;;24.68;47.73;100985.28;4985014;28;6791;-74
2023/05/08 12:10:52;;;;;;;;;;;;;;;24.79;47.55;100993.16;4986404;28;6927;-74
2023/05/08 12:13:28;;;;;;;;;;;;;;;24.92;48.14;100991.41;4962965;28;7407;-74
2023/05/08 12:15:57;;;;;;;;;;;;;;;25.04;47.58;100987.84;4964394;28;6887;-73
2023/05/08 12:18:25;;;;;;;;;;;;;;;25.12;47.18;100990.47;4953309;28;6812;-74
2023/05/08 12:20:53;;;;;;;;;;;;;;;25.19;46.75;100994.78;4971632;28;6796;-74
2023/05/08 12:23:19;;;;;;;;;;;;;;;25.23;46.26;100994.78;4969014;28;6812;-74
2023/05/08 12:25:45;;;;;;;;;;;;;;;25.27;46.18;100995.66;4967567;28;6796;-74
2023/05/08 12:28:11;;;;;;;;;;;;;;;25.30;46.72;100984.28;4952956;28;7036;-74
2023/05/08 12:30:37;;;;;;;;;;;;;;;25.36;47.18;100981.63;4956925;28;7322;-74
2023/05/08 12:33:07;;;;;;;;;;;;;;;25.46;47.04;100977.19;4961718;28;7197;-74
2023/05/08 12:35:33;;;;;;;;;;;;;;;25.56;47.26;100981.56;4948369;28;7238;-74
2023/05/08 12:38:05;;;;;;;;;;;;;;;25.65;47.09;100981.50;4965305;28;7382;-74
2023/05/08 12:40:41;;;;;;;;;;;;;;;25.76;47.46;100984.09;4956642;28;7363;-74
2023/05/08 12:43:07;;;;;;;;;;;;;;;25.88;46.98;100988.41;4969520;28;6795;-77
2023/05/08 12:45:38;;;;;;;;;;;;;;;25.97;46.57;100986.56;4985122;28;7172;-74
2023/05/08 12:48:07;;;;;;;;;;;;;;;25.97;46.72;100979.56;4965221;28;7049;-74
2023/05/08 12:50:36;;;;;;;;;;;;;;;26.00;46.72;100976.06;4967774;28;6986;-74
2023/05/08 12:53:09;;;;;;;;;;;;;;;26.02;46.55;100974.28;4967318;28;6808;-74
2023/05/08 12:55:37;;;;;;;;;;;;;;;26.04;46.85;100972.50;4949841;28;6859;-74
2023/05/08 12:58:06;;;;;;;;;;;;;;;26.07;46.83;100964.59;4981538;28;7120;-74
2023/05/08 13:00:43;;;;;;;;;;;;;;;26.13;46.46;100961.94;4971426;28;8435;-74
2023/05/08 13:03:29;;;;;;;;;;;;;;;26.15;46.02;100960.16;4953927;28;6784;-74
2023/05/08 13:05:57;;;;;;;;;;;;;;;26.14;46.50;100952.31;4966154;28;7039;-74